Friday, August 17, 2018, 10:54 PM EDT
Back to Local

KEWN, New Bern, Craven County Regional Airport

Location: New Bern, NC, United States Lat: 35.068
Local Time: 10:54 PM EDT ( 2:54 GMT) Lon: -77.047
Time Zone: US/Eastern Elev: 16 ft

Show me the last for .
Show Decoded

2018-08-17 21:54 METAR KEWN 180154Z AUTO 20009KT 10SM CLR 26/24 A3010 RMK AO2 SLP191 T02560244 =
2018-08-17 20:54 METAR KEWN 180054Z 20008KT 10SM CLR 26/24 A3009 RMK AO2 SLP189 T02610244 =
2018-08-17 19:54 METAR KEWN 172354Z 20007KT 10SM CLR 27/24 A3008 RMK AO2 SLP185 60006 T02720239
                 10322 20272 55001 =
2018-08-17 18:54 METAR KEWN 172254Z 20008KT 10SM CLR 29/24 A3007 RMK AO2 SLP181 T02890244 =
2018-08-17 17:54 METAR KEWN 172154Z 21008KT 10SM CLR 31/24 A3007 RMK AO2 SLP183 T03060244 =
2018-08-17 16:54 METAR KEWN 172054Z 16007KT 10SM FEW033 SCT041 BKN080 29/26 A3008 RMK AO2 RAE05
                 TSE30 SLP186 P0000 60006 T02890256 56019 =
2018-08-17 16:45 METAR KEWN 172045Z 15005KT 10SM FEW041 SCT065 SCT090 28/25 A3008 RMK AO2 RAE05
                 TSE30 P0000 T02830250 =
2018-08-17 16:36 METAR KEWN 172036Z 10006KT 10SM VCTS FEW041 SCT065 SCT090 27/24 A3009 RMK AO2
                 RAE05 TSE30 P0000 T02720244 =
2018-08-17 15:54 METAR KEWN 171954Z 14007KT 9SM -TSRA SCT033 BKN044 OVC060 28/26 A3010 RMK AO2
                 LTG DSNT NE AND E RAB35 TSB10E32B49 SLP192 P0006 T02780256 =
2018-08-17 15:38 METAR KEWN 171938Z 15008KT 10SM VCTS -RA BKN042 BKN050 30/24 A3010 RMK AO2 LTG
                 DSNT E RAB35 TSB10E32 P0000 T03000244 =
2018-08-17 15:16 METAR KEWN 171916Z 23005KT 10SM TS FEW042 SCT055 31/25 A3011 RMK AO2 LTG DSNT E
                 AND SE TSB10 T03110250 =
2018-08-17 15:01 METAR KEWN 171901Z 22005KT 10SM VCTS FEW110 32/26 A3011 RMK AO2 LTG DSNT E-S
                 T03170256 =
2018-08-17 14:54 METAR KEWN 171854Z 24004KT 10SM FEW100 FEW110 31/25 A3011 RMK AO2 LTG DSNT E AND
                 SE SLP197 T03110250 =
2018-08-17 13:54 METAR KEWN 171754Z 24004KT 10SM FEW050 FEW070 SCT090 29/25 A3014 RMK AO2 LTG
                 DSNT E AND S RAB15E49 SLP205 P0002 60002 T02940250 10317 20250 56008 =
2018-08-17 13:33 METAR KEWN 171733Z 26006KT 10SM RA FEW043 BKN055 BKN080 27/24 A3014 RMK AO2 LTG
                 DSNT E RAB15 P0001 T02670239 =
2018-08-17 13:18 METAR KEWN 171718Z 27009KT 10SM VCTS -RA FEW038 SCT050 29/24 A3014 RMK AO2 LTG
                 DSNT E RAB15 P0000 T02890239 =
2018-08-17 12:54 METAR KEWN 171654Z 23005KT 10SM FEW038 SCT080 31/24 A3014 RMK AO2 LTG DSNT E AND
                 SE SLP206 T03060244 =
2018-08-17 11:54 METAR KEWN 171554Z 24007KT 10SM SCT032 SCT050 30/24 A3016 RMK AO2 SLP212
                 T03000244 =
2018-08-17 10:54 METAR KEWN 171454Z 27007KT 10SM CLR 30/25 A3016 RMK AO2 SLP214 T03000250 58005 =
2018-08-17 09:54 METAR KEWN 171354Z 24006KT 10SM CLR 29/25 A3017 RMK AO2 SLP216 T02890250 =
2018-08-17 08:54 METAR KEWN 171254Z 24007KT 10SM CLR 27/25 A3018 RMK AO2 SLP218 T02720250 =
2018-08-17 07:54 METAR KEWN 171154Z 23006KT 10SM CLR 25/24 A3018 RMK AO2 SLP218 T02500244 10250
                 20233 51008 =
2018-08-17 06:54 METAR KEWN 171054Z 23005KT 10SM CLR 24/24 A3017 RMK AO2 SLP217 T02390239 =
2018-08-17 05:54 METAR KEWN 170954Z 23005KT 10SM CLR 24/24 A3016 RMK AO2 SLP212 T02390239 =
2018-08-17 04:54 METAR KEWN 170854Z AUTO 23005KT 10SM CLR 24/24 A3015 RMK AO2 SLP211 T02390239
                 56004 =
2018-08-17 03:54 METAR KEWN 170754Z AUTO 22005KT 10SM CLR 24/24 A3015 RMK AO2 LTG DSNT E SLP211
                 T02390239 =
2018-08-17 02:54 METAR KEWN 170654Z AUTO 23006KT 10SM CLR 24/23 A3016 RMK AO2 SLP213 T02390233 =
2018-08-17 01:54 METAR KEWN 170554Z AUTO 20004KT 10SM CLR 23/23 A3017 RMK AO2 SLP215 T02330228
                 10278 20233 50004 =
2018-08-17 00:54 METAR KEWN 170454Z AUTO 21005KT 10SM CLR 24/23 A3017 RMK AO2 SLP217 T02390233
                 403220211 =
2018-08-16 23:54 METAR KEWN 170354Z AUTO 22004KT 10SM CLR 24/23 A3017 RMK AO2 SLP214 T02440233 =

Support USWX by starting your Amazon purchase here.